createdAt,value
2023-04-14T00:03:46.059Z,8.57
2023-04-14T00:08:48.658Z,8.07
2023-04-14T00:13:51.049Z,8.40
2023-04-14T00:18:53.429Z,8.73
2023-04-14T00:23:56.849Z,9.20
2023-04-14T00:28:59.437Z,9.33
2023-04-14T00:34:02.033Z,9.47
2023-04-14T00:39:06.457Z,9.70
2023-04-14T00:44:09.490Z,10.90
2023-04-14T00:49:12.151Z,11.17
2023-04-14T00:54:17.071Z,10.70
2023-04-14T00:59:20.973Z,11.20
2023-04-14T01:04:24.814Z,12.40
2023-04-14T01:09:30.134Z,13.07
2023-04-14T01:14:44.866Z,13.07
2023-04-14T01:19:54.759Z,13.33
2023-04-14T01:25:49.835Z,13.07
2023-04-14T01:31:11.441Z,13.93
2023-04-14T01:36:20.694Z,15.00
2023-04-14T01:41:25.916Z,15.13
2023-04-14T01:46:28.755Z,15.50
2023-04-14T01:51:33.845Z,14.90
2023-04-14T01:56:39.908Z,13.80
2023-04-14T02:01:44.236Z,14.33
2023-04-14T02:06:48.765Z,13.53
2023-04-14T02:11:52.925Z,13.97
2023-04-14T02:16:59.330Z,14.03
2023-04-14T02:22:03.405Z,13.93
2023-04-14T02:27:10.634Z,13.90
2023-04-14T02:32:21.948Z,13.60
2023-04-14T02:37:27.350Z,13.27
2023-04-14T02:42:31.117Z,12.53
2023-04-14T02:47:38.210Z,12.70
2023-04-14T02:52:42.422Z,13.27
2023-04-14T02:57:46.982Z,12.33
2023-04-14T03:02:53.331Z,12.80
2023-04-14T03:07:57.012Z,12.00
2023-04-14T03:13:02.553Z,12.23
2023-04-14T03:18:07.180Z,13.00
2023-04-14T03:23:12.455Z,13.10
2023-04-14T03:28:32.566Z,12.77
2023-04-14T03:33:38.799Z,12.60
2023-04-14T03:38:48.990Z,13.03
2023-04-14T03:43:56.950Z,12.67
2023-04-14T03:49:00.225Z,12.53
2023-04-14T03:54:06.557Z,12.40
2023-04-14T03:59:14.313Z,13.00
2023-04-14T04:04:19.286Z,12.50
2023-04-14T04:09:24.634Z,12.67
2023-04-14T04:14:30.079Z,13.10
2023-04-14T04:19:34.363Z,12.30
2023-04-14T04:24:41.330Z,12.47
2023-04-14T04:29:50.887Z,11.87
2023-04-14T04:34:54.740Z,12.43
2023-04-14T04:39:58.478Z,11.33
2023-04-14T04:45:02.162Z,12.20
2023-04-14T04:50:05.789Z,11.30
2023-04-14T04:55:08.447Z,11.93
2023-04-14T05:00:11.478Z,11.97
2023-04-14T05:05:13.952Z,11.33
2023-04-14T05:10:16.472Z,10.97
2023-04-14T05:15:18.993Z,11.47
2023-04-14T05:20:21.873Z,11.57
2023-04-14T05:25:24.307Z,11.60
2023-04-14T05:30:27.566Z,11.53
2023-04-14T05:35:30.058Z,12.20
2023-04-14T05:40:35.477Z,12.10
2023-04-14T05:45:38.165Z,13.43
2023-04-14T05:50:41.122Z,13.60
2023-04-14T05:55:43.697Z,12.93
2023-04-14T06:00:46.212Z,13.20
2023-04-14T06:05:48.782Z,14.17
2023-04-14T06:10:51.516Z,14.33
2023-04-14T06:15:56.173Z,14.00
2023-04-14T06:21:06.447Z,13.60
2023-04-14T06:26:09.309Z,14.23
2023-04-14T06:31:11.997Z,16.20
2023-04-14T06:36:18.234Z,16.07
2023-04-14T06:41:20.790Z,16.47
2023-04-14T06:46:23.380Z,17.33
2023-04-14T06:51:27.153Z,18.00
2023-04-14T06:56:29.636Z,18.87
2023-04-14T07:01:32.391Z,17.73
2023-04-14T07:06:34.929Z,18.73
2023-04-14T07:11:37.435Z,19.37
2023-04-14T07:16:39.960Z,19.17
2023-04-14T07:27:07.595Z,19.63
2023-04-14T07:32:14.421Z,21.00
2023-04-14T07:37:16.934Z,20.37
2023-04-14T07:42:19.356Z,20.90
2023-04-14T07:47:22.409Z,21.33
2023-04-14T07:52:25.059Z,21.30
2023-04-14T07:57:27.664Z,20.70
2023-04-14T08:02:30.735Z,20.10
2023-04-14T08:07:33.540Z,20.67
2023-04-14T08:12:36.085Z,20.50
2023-04-14T08:17:38.708Z,21.33
2023-04-14T08:22:43.850Z,20.73
2023-04-14T08:27:46.465Z,20.30
2023-04-14T08:38:20.960Z,20.10
2023-04-14T08:43:23.849Z,20.23
2023-04-14T08:48:31.055Z,18.80
2023-04-14T08:53:35.092Z,19.90
2023-04-14T08:58:38.482Z,20.23
2023-04-14T09:03:41.743Z,19.37
2023-04-14T09:08:47.129Z,20.80
2023-04-14T09:13:50.382Z,19.67
2023-04-14T09:18:53.799Z,19.33
2023-04-14T09:23:57.067Z,19.40
2023-04-14T09:29:24.506Z,19.35
2023-04-14T09:34:27.436Z,17.77
2023-04-14T09:39:30.217Z,17.83
2023-04-14T09:44:32.977Z,18.70
2023-04-14T09:49:35.678Z,19.23
2023-04-14T09:54:41.416Z,18.87
2023-04-14T09:59:47.110Z,18.37
2023-04-14T10:05:05.141Z,17.27
2023-04-14T10:10:13.490Z,18.20
2023-04-14T10:15:17.421Z,18.90
2023-04-14T10:20:20.225Z,18.83
2023-04-14T10:25:24.463Z,16.90
2023-04-14T10:30:27.591Z,16.90
2023-04-14T10:35:39.725Z,19.10
2023-04-14T10:40:51.551Z,16.80
2023-04-14T10:45:58.287Z,13.80
2023-04-14T10:51:04.408Z,13.77
2023-04-14T10:56:07.279Z,14.40
2023-04-14T11:01:31.986Z,14.83
2023-04-14T11:06:52.369Z,13.70
2023-04-14T11:11:56.819Z,13.67
2023-04-14T11:17:05.035Z,13.93
2023-04-14T11:22:07.973Z,12.27
2023-04-14T11:27:11.886Z,10.33
2023-04-14T11:32:14.433Z,8.60
2023-04-14T11:37:16.949Z,8.80
2023-04-14T11:42:19.737Z,8.50
2023-04-14T11:47:22.386Z,9.17
2023-04-14T11:52:24.848Z,8.90
2023-04-14T11:57:27.535Z,8.57
2023-04-14T12:02:30.441Z,8.83
2023-04-14T12:07:33.655Z,8.93
2023-04-14T12:12:36.864Z,11.60
2023-04-14T12:17:39.668Z,11.37
2023-04-14T12:22:42.137Z,8.53
2023-04-14T12:27:53.524Z,8.93
2023-04-14T12:32:57.857Z,8.80
2023-04-14T12:38:00.580Z,7.97
2023-04-14T12:43:03.162Z,9.50
2023-04-14T12:48:13.713Z,10.30
2023-04-14T12:53:29.149Z,8.40
2023-04-14T12:58:32.183Z,29.07
2023-04-14T13:03:40.831Z,15.43
2023-04-14T13:08:48.513Z,9.23
2023-04-14T13:13:54.695Z,11.03
2023-04-14T13:18:57.329Z,7.17
2023-04-14T13:23:59.771Z,6.83
2023-04-14T13:29:02.993Z,9.70
2023-04-14T13:34:06.149Z,6.33
2023-04-14T13:39:09.201Z,6.90
2023-04-14T13:44:13.360Z,7.20
2023-04-14T13:49:16.053Z,7.07
2023-04-14T13:54:18.738Z,7.57
2023-04-14T13:59:22.985Z,7.63
2023-04-14T14:04:26.390Z,7.23
2023-04-14T14:09:30.109Z,7.10
2023-04-14T14:14:32.794Z,6.90
2023-04-14T14:19:35.431Z,6.57
2023-04-14T14:24:39.061Z,6.37
2023-04-14T14:29:45.360Z,7.33
2023-04-14T14:34:53.710Z,6.37
2023-04-14T14:39:57.292Z,5.93
2023-04-14T14:45:00.991Z,7.87
2023-04-14T14:50:06.866Z,7.87
2023-04-14T14:55:10.770Z,7.83
2023-04-14T15:00:13.558Z,7.53
2023-04-14T15:05:16.280Z,10.73
2023-04-14T15:10:18.681Z,8.70
2023-04-14T15:15:21.378Z,8.63
2023-04-14T15:20:23.803Z,8.90
2023-04-14T15:25:26.313Z,9.13
2023-04-14T15:30:28.940Z,9.90
2023-04-14T15:35:38.666Z,9.60
2023-04-14T15:40:41.334Z,9.67
2023-04-14T15:45:43.677Z,10.43
2023-04-14T15:50:46.050Z,10.90
2023-04-14T15:55:51.345Z,8.83
2023-04-14T16:00:53.871Z,8.50
2023-04-14T16:06:07.268Z,7.90
2023-04-14T16:11:15.230Z,7.63
2023-04-14T16:16:17.924Z,8.50
2023-04-14T16:21:20.372Z,8.83
2023-04-14T16:26:23.812Z,8.60
2023-04-14T16:31:26.234Z,9.00
2023-04-14T16:36:29.145Z,8.43
2023-04-14T16:41:32.018Z,8.33
2023-04-14T16:46:34.509Z,9.10
2023-04-14T16:51:38.173Z,9.80
2023-04-14T16:56:40.608Z,10.03
2023-04-14T17:01:44.834Z,8.40
2023-04-14T17:06:47.469Z,9.33
2023-04-14T17:11:49.905Z,9.10
2023-04-14T17:16:52.789Z,8.77
2023-04-14T17:21:55.142Z,8.37
2023-04-14T17:26:57.508Z,9.63
2023-04-14T17:32:01.375Z,8.57
2023-04-14T17:37:04.970Z,7.60
2023-04-14T17:42:07.518Z,9.43
2023-04-14T17:47:15.710Z,7.87
2023-04-14T17:52:18.647Z,7.43
2023-04-14T17:57:21.033Z,7.60
2023-04-14T18:02:24.166Z,7.70
2023-04-14T18:07:26.625Z,8.10
2023-04-14T18:12:30.282Z,7.60
2023-04-14T18:17:34.896Z,7.23
2023-04-14T18:22:38.250Z,7.40
2023-04-14T18:32:46.346Z,6.83
2023-04-14T18:37:48.881Z,7.20
2023-04-14T18:42:52.334Z,7.13
2023-04-14T18:47:54.761Z,6.87
2023-04-14T18:52:57.214Z,7.10
2023-04-14T18:57:59.629Z,7.50
2023-04-14T19:03:04.475Z,7.73
2023-04-14T19:08:07.726Z,7.10
2023-04-14T19:13:11.264Z,7.17
2023-04-14T19:18:13.823Z,7.07
2023-04-14T19:23:16.236Z,6.80
2023-04-14T19:28:18.644Z,6.17
2023-04-14T19:33:21.761Z,5.33
2023-04-14T19:38:24.248Z,5.40
2023-04-14T19:43:26.744Z,5.10
2023-04-14T19:48:29.340Z,4.60
2023-04-14T19:53:31.819Z,5.40
2023-04-14T19:58:34.224Z,5.50
2023-04-14T20:03:36.695Z,6.70
2023-04-14T20:08:39.225Z,5.13
2023-04-14T20:13:41.710Z,5.40
2023-04-14T20:18:45.635Z,5.07
2023-04-14T20:23:48.191Z,8.63
2023-04-14T20:28:51.252Z,5.17
2023-04-14T20:33:53.706Z,5.13
2023-04-14T20:38:56.098Z,5.93
2023-04-14T20:43:58.540Z,6.40
2023-04-14T20:49:02.690Z,7.10
2023-04-14T20:54:05.627Z,6.60
2023-04-14T20:59:08.088Z,6.10
2023-04-14T21:04:10.908Z,6.50
2023-04-14T21:09:13.502Z,6.63
2023-04-14T21:15:30.956Z,6.77
2023-04-14T21:19:38.570Z,7.03
2023-04-14T21:24:44.907Z,5.83
2023-04-14T21:29:47.313Z,6.20
2023-04-14T21:34:49.760Z,6.20
2023-04-14T21:39:52.175Z,6.40
2023-04-14T21:44:54.548Z,5.53
2023-04-14T21:49:56.980Z,5.30
2023-04-14T21:54:59.442Z,5.47
2023-04-14T22:00:02.121Z,5.73
2023-04-14T22:05:05.019Z,4.70
2023-04-14T22:10:07.801Z,5.47
2023-04-14T22:15:10.616Z,4.83
2023-04-14T22:20:13.210Z,4.97
2023-04-14T22:25:16.732Z,5.23
2023-04-14T22:30:19.214Z,5.27
2023-04-14T22:35:22.250Z,5.07
2023-04-14T22:40:24.815Z,4.83
2023-04-14T22:45:28.213Z,5.40
2023-04-14T22:50:31.364Z,5.80
2023-04-14T22:55:33.874Z,5.70
2023-04-14T23:00:36.231Z,5.13
2023-04-14T23:05:39.279Z,5.70
2023-04-14T23:10:41.836Z,5.83
2023-04-14T23:15:44.406Z,5.60
2023-04-14T23:20:46.813Z,5.47
2023-04-14T23:25:49.345Z,5.53
2023-04-14T23:30:52.043Z,5.67
2023-04-14T23:35:56.303Z,5.47
2023-04-14T23:41:00.128Z,5.90
2023-04-14T23:46:02.779Z,6.10
2023-04-14T23:51:15.457Z,6.20
2023-04-14T23:56:24.091Z,5.67
